Amboy, Indiana
Current Conditions -  °F | °C
As of 10:15 PM on Friday 31 Oct 2014 (Local Time) from KOKK Reporting Station
Overcast Overcast  
Wind Chill: 22°   Ceiling: 2400
Heat Index: 34°   Visibility: 10mi
Dew Point: 27°   Wind: 22mph
Humidity: 75%   Direction: 360°N
Pressure: 30.18"   Gusts: 31mph
Location:  40.6°N, 85.93°W
Report Text: KOKK 010215Z AUTO 36019G27KT 10SM OVC024 01/M03 A3018 RMK AO1
Loading
Personal Weather Stations






























Interactive Weather Map
Tropical Storm Tracking
New forecast layout! Learn more

10-Day Weather Forecast

Advertisements
Track Severe Weather on mobile